Terminal Aerodrome Forecast
Issued by NWS

Home | Current Version | Previous Version | Graphics & Text | Print | Product List | Glossary On
Versions: 1 2 3 4 5 6 7 8 9 10 11 12 13 14 15 16 17 18 19
524
FTUS42 KMHX 232329
TAFOAJ
TAF
KOAJ 232329Z 2400/2424 10010G15KT 6SM -SHRA SCT040 OVC100
     FM240200 10010G15KT 6SM -RA OVC020
     FM240900 11015G25KT 4SM RA OVC008
     FM241200 11015G25KT 2SM +SHRA OVC008
     FM241800 12015KT 6SM SHRA BKN007
     FM242100 14010KT 6SM SHRA BKN021
     FM242300 15010KT P6SM SCT021
      AMD LTD TO CLD VIS AND WIND=

USA.gov is the U.S. government's official web portal to all federal, state and local government web resources and services.